Time;durP1;ratioP1;P1;durP2;ratioP2;P2;SDS_P1;SDS_P2;PMS_P1;PMS_P2;Temp;Humidity;BMP_temperature;BMP_pressure;BME280_temperature;BME280_humidity;BME280_pressure;Samples;Min_cycle;Max_cycle;Signal;HPM_P1;HPM_P2
2022/02/13 00:20:18;;;;;;;6.50;5.15;;;;;;;;;;5169495;27;20000;-59
2022/02/13 00:22:44;;;;;;;6.47;5.07;;;;;;;;;;5179588;27;20077;-59
2022/02/13 00:25:10;;;;;;;6.30;5.12;;;;;;;;;;5179344;27;20051;-63
2022/02/13 00:27:37;;;;;;;6.53;5.25;;;;;;;;;;5179307;27;20078;-58
2022/02/13 00:30:06;;;;;;;5.95;5.35;;;;;;;;;;5179296;27;20089;-63
2022/02/13 00:32:33;;;;;;;7.57;5.20;;;;;;;;;;5179373;27;20167;-59
2022/02/13 00:34:59;;;;;;;6.90;5.28;;;;;;;;;;5179399;27;20147;-59
2022/02/13 00:37:25;;;;;;;8.23;5.78;;;;;;;;;;5179432;27;20437;-59
2022/02/13 00:39:51;;;;;;;9.00;5.70;;;;;;;;;;5179240;27;20105;-60
2022/02/13 00:42:17;;;;;;;6.80;5.57;;;;;;;;;;5179253;27;20200;-59
2022/02/13 00:44:43;;;;;;;6.60;4.68;;;;;;;;;;5179305;27;20098;-59
2022/02/13 00:47:09;;;;;;;7.68;5.15;;;;;;;;;;5179263;27;20058;-59
2022/02/13 00:49:36;;;;;;;6.78;5.10;;;;;;;;;;5179244;27;20473;-58
2022/02/13 00:52:02;;;;;;;6.82;5.57;;;;;;;;;;5179337;27;20463;-59
2022/02/13 00:54:28;;;;;;;6.93;5.65;;;;;;;;;;5179320;27;20091;-59
2022/02/13 00:56:54;;;;;;;7.20;5.53;;;;;;;;;;5179204;27;20161;-59
2022/02/13 00:59:20;;;;;;;6.82;5.05;;;;;;;;;;5179297;27;20070;-60
2022/02/13 01:01:46;;;;;;;9.45;6.12;;;;;;;;;;5179076;27;20159;-60
2022/02/13 01:04:12;;;;;;;7.18;5.70;;;;;;;;;;5179692;27;20090;-60
2022/02/13 01:06:38;;;;;;;6.68;5.15;;;;;;;;;;5179068;27;20101;-59
2022/02/13 01:09:04;;;;;;;7.72;5.62;;;;;;;;;;5179334;27;20087;-59
2022/02/13 01:11:30;;;;;;;7.00;5.28;;;;;;;;;;5179045;27;20167;-59
2022/02/13 01:13:56;;;;;;;6.72;4.85;;;;;;;;;;5179215;27;20078;-60
2022/02/13 01:16:23;;;;;;;5.37;4.87;;;;;;;;;;5179161;27;20165;-59
2022/02/13 01:18:49;;;;;;;7.05;5.10;;;;;;;;;;5179138;27;20602;-64
2022/02/13 01:21:15;;;;;;;7.93;5.57;;;;;;;;;;5179545;27;20078;-64
2022/02/13 01:23:42;;;;;;;6.03;5.10;;;;;;;;;;5179274;27;20101;-64
2022/02/13 01:26:10;;;;;;;6.22;5.22;;;;;;;;;;5179107;27;20472;-64
2022/02/13 01:28:36;;;;;;;5.78;4.60;;;;;;;;;;5179155;27;20101;-64
2022/02/13 01:31:02;;;;;;;6.93;5.22;;;;;;;;;;5178984;27;20072;-64
2022/02/13 01:33:29;;;;;;;7.97;4.95;;;;;;;;;;5179227;27;20097;-64
2022/02/13 01:35:56;;;;;;;6.12;4.80;;;;;;;;;;5178929;27;20075;-64
2022/02/13 01:38:22;;;;;;;5.72;4.45;;;;;;;;;;5179161;27;20085;-64
2022/02/13 01:40:48;;;;;;;6.95;4.45;;;;;;;;;;5178876;27;20089;-64
2022/02/13 01:43:15;;;;;;;5.18;4.07;;;;;;;;;;5179080;27;20523;-64
2022/02/13 01:45:41;;;;;;;5.40;4.65;;;;;;;;;;5179635;27;20085;-64
2022/02/13 01:48:08;;;;;;;5.75;4.32;;;;;;;;;;5180715;27;20191;-64
2022/02/13 01:50:35;;;;;;;5.03;3.90;;;;;;;;;;5180038;27;20062;-65
2022/02/13 01:53:02;;;;;;;6.57;3.75;;;;;;;;;;5180425;27;20086;-64
2022/02/13 01:55:28;;;;;;;5.00;3.62;;;;;;;;;;5179968;27;20070;-64
2022/02/13 01:57:57;;;;;;;6.35;4.00;;;;;;;;;;5180436;27;20468;-64
2022/02/13 02:00:25;;;;;;;5.30;4.20;;;;;;;;;;5180062;27;20080;-64
2022/02/13 02:02:51;;;;;;;7.00;4.32;;;;;;;;;;5180360;27;20112;-64
2022/02/13 02:05:18;;;;;;;6.80;4.00;;;;;;;;;;5180047;27;20171;-64
2022/02/13 02:07:44;;;;;;;6.32;3.97;;;;;;;;;;5180345;27;20172;-64
2022/02/13 02:10:10;;;;;;;6.60;4.03;;;;;;;;;;5180228;27;20098;-64
2022/02/13 02:12:37;;;;;;;7.60;4.68;;;;;;;;;;5161122;27;20086;-64
2022/02/13 02:15:05;;;;;;;6.03;4.10;;;;;;;;;;5180067;27;20126;-64
2022/02/13 02:17:32;;;;;;;5.80;3.65;;;;;;;;;;5180170;27;20395;-65
2022/02/13 02:19:58;;;;;;;5.75;4.12;;;;;;;;;;5179873;27;20097;-64
2022/02/13 02:22:24;;;;;;;4.45;3.47;;;;;;;;;;5180312;27;20070;-64
2022/02/13 02:24:50;;;;;;;4.53;3.37;;;;;;;;;;5180445;27;20085;-64
2022/02/13 02:27:17;;;;;;;4.40;3.50;;;;;;;;;;5180048;27;20173;-64
2022/02/13 02:29:43;;;;;;;4.37;3.00;;;;;;;;;;5180179;27;20160;-64
2022/02/13 02:32:12;;;;;;;4.00;3.00;;;;;;;;;;5180121;27;20066;-64
2022/02/13 02:34:39;;;;;;;3.58;2.42;;;;;;;;;;5179964;27;20161;-64
2022/02/13 02:37:09;;;;;;;5.68;3.10;;;;;;;;;;5180023;27;20062;-64
2022/02/13 02:39:36;;;;;;;4.15;2.97;;;;;;;;;;5180067;27;20077;-64
2022/02/13 02:42:03;;;;;;;3.87;2.80;;;;;;;;;;5179825;27;20508;-64
2022/02/13 02:44:31;;;;;;;5.12;2.75;;;;;;;;;;5161278;27;20070;-64
2022/02/13 02:46:57;;;;;;;4.12;2.92;;;;;;;;;;5160740;27;20087;-65
2022/02/13 02:49:23;;;;;;;3.83;2.92;;;;;;;;;;5179894;27;20078;-65
2022/02/13 02:51:49;;;;;;;4.32;2.83;;;;;;;;;;5179869;27;20065;-66
2022/02/13 02:54:15;;;;;;;3.67;2.78;;;;;;;;;;5180008;27;20074;-65
2022/02/13 02:56:42;;;;;;;4.68;2.78;;;;;;;;;;5179764;27;20081;-65
2022/02/13 02:59:08;;;;;;;4.12;3.00;;;;;;;;;;5180054;27;20077;-65
2022/02/13 03:01:34;;;;;;;3.08;2.62;;;;;;;;;;5179765;27;20080;-64
2022/02/13 03:04:00;;;;;;;3.05;2.45;;;;;;;;;;5179907;27;20090;-65
2022/02/13 03:06:26;;;;;;;4.57;2.90;;;;;;;;;;5179833;27;20093;-65
2022/02/13 03:08:52;;;;;;;6.50;4.93;;;;;;;;;;5179882;27;20105;-64
2022/02/13 03:11:18;;;;;;;8.40;5.20;;;;;;;;;;5180050;27;20505;-64
2022/02/13 03:13:45;;;;;;;6.37;4.55;;;;;;;;;;5179756;27;20093;-64
2022/02/13 03:16:11;;;;;;;6.07;4.45;;;;;;;;;;5179694;27;20106;-64
2022/02/13 03:18:37;;;;;;;5.20;4.00;;;;;;;;;;5179634;27;20107;-64
2022/02/13 03:21:03;;;;;;;4.25;3.22;;;;;;;;;;5179622;27;20414;-64
2022/02/13 03:23:30;;;;;;;4.10;3.22;;;;;;;;;;5179604;27;20477;-64
2022/02/13 03:25:56;;;;;;;4.85;3.03;;;;;;;;;;5179809;27;20066;-65
2022/02/13 03:28:22;;;;;;;4.10;2.90;;;;;;;;;;5179738;27;20468;-65
2022/02/13 03:30:48;;;;;;;5.18;3.10;;;;;;;;;;5179520;27;20086;-64
2022/02/13 03:33:14;;;;;;;3.10;2.70;;;;;;;;;;5179764;27;20148;-64
2022/02/13 03:35:41;;;;;;;4.82;3.37;;;;;;;;;;5179577;27;20097;-65
2022/02/13 03:38:07;;;;;;;4.72;3.42;;;;;;;;;;5179648;27;20084;-65
2022/02/13 03:40:33;;;;;;;4.87;3.08;;;;;;;;;;5179718;27;20054;-65
2022/02/13 03:43:00;;;;;;;5.12;3.50;;;;;;;;;;5179615;27;20066;-65
2022/02/13 03:45:26;;;;;;;7.75;4.10;;;;;;;;;;5179629;27;20599;-65
2022/02/13 03:47:52;;;;;;;6.80;5.65;;;;;;;;;;5179662;27;20078;-65
2022/02/13 03:50:18;;;;;;;5.28;4.45;;;;;;;;;;5160542;27;20090;-65
2022/02/13 03:52:44;;;;;;;4.37;3.87;;;;;;;;;;5179547;27;20202;-65
2022/02/13 03:55:16;;;;;;;5.18;3.65;;;;;;;;;;5179667;27;20082;-64
2022/02/13 03:57:43;;;;;;;3.47;2.92;;;;;;;;;;5179383;27;20394;-66
2022/02/13 04:00:11;;;;;;;4.20;3.10;;;;;;;;;;5143269;27;20421;-64
2022/02/13 04:02:37;;;;;;;5.53;3.28;;;;;;;;;;5179398;27;20081;-65
2022/02/13 04:05:04;;;;;;;4.03;2.80;;;;;;;;;;5179527;27;20508;-68
2022/02/13 04:07:30;;;;;;;4.90;3.10;;;;;;;;;;5179284;27;20062;-68
2022/02/13 04:09:56;;;;;;;3.97;2.70;;;;;;;;;;5179527;27;20145;-67
2022/02/13 04:12:25;;;;;;;3.70;2.70;;;;;;;;;;5179358;27;20151;-68
2022/02/13 04:14:52;;;;;;;3.72;2.72;;;;;;;;;;5178114;27;20093;-70
2022/02/13 04:17:19;;;;;;;4.40;2.60;;;;;;;;;;5174715;27;20398;-69
2022/02/13 04:19:46;;;;;;;4.68;2.58;;;;;;;;;;5155442;27;20527;-68
2022/02/13 04:22:12;;;;;;;5.62;3.00;;;;;;;;;;5174770;27;20502;-67
2022/02/13 04:24:38;;;;;;;6.35;3.03;;;;;;;;;;5174530;27;20084;-68
2022/02/13 04:27:04;;;;;;;4.30;2.80;;;;;;;;;;5174391;27;20105;-69
2022/02/13 04:29:31;;;;;;;3.75;2.83;;;;;;;;;;5174885;27;20078;-69
2022/02/13 04:31:57;;;;;;;5.70;2.60;;;;;;;;;;5172325;27;20084;-70
2022/02/13 04:34:23;;;;;;;5.03;3.28;;;;;;;;;;5174664;27;20176;-69
2022/02/13 04:36:49;;;;;;;5.97;3.33;;;;;;;;;;5174723;27;20086;-68
2022/02/13 04:39:15;;;;;;;4.00;2.60;;;;;;;;;;5174766;27;20097;-70
2022/02/13 04:41:41;;;;;;;5.22;3.05;;;;;;;;;;5174412;27;20441;-67
2022/02/13 04:44:07;;;;;;;7.70;3.10;;;;;;;;;;5174756;27;20182;-67
2022/02/13 04:46:33;;;;;;;6.03;3.55;;;;;;;;;;5155738;27;20086;-66
2022/02/13 04:48:59;;;;;;;5.32;3.50;;;;;;;;;;5174555;27;20101;-66
2022/02/13 04:51:25;;;;;;;7.50;3.42;;;;;;;;;;5174054;27;20440;-65
2022/02/13 04:53:51;;;;;;;4.37;3.00;;;;;;;;;;5173842;27;20204;-70
2022/02/13 04:56:17;;;;;;;3.47;2.72;;;;;;;;;;5174523;27;20194;-67
2022/02/13 04:58:43;;;;;;;4.05;2.67;;;;;;;;;;5174067;27;20093;-67
2022/02/13 05:01:10;;;;;;;4.53;2.72;;;;;;;;;;5174178;27;20094;-68
2022/02/13 05:03:36;;;;;;;4.60;2.60;;;;;;;;;;5174493;27;20106;-69
2022/02/13 05:06:03;;;;;;;4.05;2.85;;;;;;;;;;5174663;27;20595;-70
2022/02/13 05:08:29;;;;;;;4.90;2.50;;;;;;;;;;5177527;27;20069;-74
2022/02/13 05:10:55;;;;;;;3.78;2.58;;;;;;;;;;5180332;27;20082;-72
2022/02/13 05:13:21;;;;;;;3.42;2.67;;;;;;;;;;5179219;27;20098;-71
2022/02/13 05:15:47;;;;;;;3.72;2.53;;;;;;;;;;5159796;27;20175;-73
2022/02/13 05:18:14;;;;;;;4.03;2.75;;;;;;;;;;5179300;27;20109;-72
2022/02/13 05:20:40;;;;;;;5.07;2.80;;;;;;;;;;5160833;27;20074;-71
2022/02/13 05:23:06;;;;;;;3.20;2.65;;;;;;;;;;5180226;27;20070;-72
2022/02/13 05:25:32;;;;;;;4.95;3.10;;;;;;;;;;5180405;27;20068;-72
2022/02/13 05:27:58;;;;;;;3.62;2.75;;;;;;;;;;5180669;27;20065;-69
2022/02/13 05:30:24;;;;;;;4.62;3.10;;;;;;;;;;5180417;27;20436;-67
2022/02/13 05:32:50;;;;;;;3.45;2.60;;;;;;;;;;5180255;27;20074;-68
2022/02/13 05:35:16;;;;;;;4.00;2.62;;;;;;;;;;5179742;27;20080;-68
2022/02/13 05:37:42;;;;;;;3.85;2.62;;;;;;;;;;5179909;27;20067;-69
2022/02/13 05:40:09;;;;;;;3.87;2.75;;;;;;;;;;5179691;27;20509;-68
2022/02/13 05:42:36;;;;;;;5.28;2.95;;;;;;;;;;5178704;27;20074;-68
2022/02/13 05:45:03;;;;;;;6.10;2.62;;;;;;;;;;5179057;27;20082;-71
2022/02/13 05:47:29;;;;;;;3.87;3.10;;;;;;;;;;5179193;27;20156;-72
2022/02/13 05:49:55;;;;;;;5.25;4.05;;;;;;;;;;5179087;27;20094;-68
2022/02/13 05:52:21;;;;;;;2.90;2.60;;;;;;;;;;5179298;27;20102;-72
2022/02/13 05:54:47;;;;;;;4.68;2.78;;;;;;;;;;5179615;27;20159;-68
2022/02/13 05:57:13;;;;;;;6.95;2.70;;;;;;;;;;5178573;27;20092;-68
2022/02/13 05:59:40;;;;;;;2.83;2.53;;;;;;;;;;5161395;27;20078;-69
2022/02/13 06:02:06;;;;;;;2.65;2.10;;;;;;;;;;5159912;27;20086;-68
2022/02/13 06:04:32;;;;;;;1.50;1.40;;;;;;;;;;5179343;27;20169;-68
2022/02/13 06:06:58;;;;;;;5.75;2.80;;;;;;;;;;5178881;27;20058;-67
2022/02/13 06:09:24;;;;;;;6.45;2.30;;;;;;;;;;5159336;27;20098;-76
2022/02/13 06:11:50;;;;;;;4.32;1.95;;;;;;;;;;5179400;27;20094;-79
2022/02/13 06:14:17;;;;;;;3.28;2.42;;;;;;;;;;5179436;27;20078;-70
2022/02/13 06:16:43;;;;;;;3.80;2.40;;;;;;;;;;5159676;27;20089;-72
2022/02/13 06:19:09;;;;;;;4.57;2.85;;;;;;;;;;5178285;27;20470;-74
2022/02/13 06:21:35;;;;;;;5.05;2.80;;;;;;;;;;5161066;27;20081;-74
2022/02/13 06:24:03;;;;;;;3.85;2.80;;;;;;;;;;5160875;27;20484;-73
2022/02/13 06:26:31;;;;;;;4.05;2.78;;;;;;;;;;5180347;27;20445;-71
2022/02/13 06:28:57;;;;;;;8.00;2.90;;;;;;;;;;5160859;27;20098;-69
2022/02/13 06:31:23;;;;;;;3.75;2.33;;;;;;;;;;5179117;27;20086;-70
2022/02/13 06:33:49;;;;;;;4.47;2.58;;;;;;;;;;5142963;27;20074;-68
2022/02/13 06:36:15;;;;;;;3.53;2.47;;;;;;;;;;5160208;27;20188;-72
2022/02/13 06:38:41;;;;;;;3.78;3.03;;;;;;;;;;5179012;27;20093;-73
2022/02/13 06:41:07;;;;;;;4.03;2.75;;;;;;;;;;5179096;27;20093;-75
2022/02/13 06:43:33;;;;;;;2.83;2.47;;;;;;;;;;5179035;27;20074;-73
2022/02/13 06:45:59;;;;;;;3.47;2.37;;;;;;;;;;5179321;27;20159;-70
2022/02/13 06:48:29;;;;;;;4.45;2.67;;;;;;;;;;5179277;27;20070;-75
2022/02/13 06:50:56;;;;;;;4.15;2.60;;;;;;;;;;5179535;27;20165;-69
2022/02/13 06:53:22;;;;;;;4.97;2.60;;;;;;;;;;5160836;27;20464;-66
2022/02/13 06:55:50;;;;;;;6.12;2.80;;;;;;;;;;5179658;27;20501;-74
2022/02/13 06:58:17;;;;;;;5.87;2.67;;;;;;;;;;5179853;27;20146;-67
2022/02/13 07:00:43;;;;;;;5.25;3.12;;;;;;;;;;5179925;27;20062;-71
2022/02/13 07:03:10;;;;;;;5.35;2.58;;;;;;;;;;5179850;27;20465;-70
2022/02/13 07:05:36;;;;;;;4.25;2.72;;;;;;;;;;5179283;27;20069;-67
2022/02/13 07:08:03;;;;;;;4.78;2.78;;;;;;;;;;5179054;27;20062;-66
2022/02/13 07:10:29;;;;;;;5.07;2.78;;;;;;;;;;5179800;27;20080;-68
2022/02/13 07:12:55;;;;;;;4.87;2.72;;;;;;;;;;5179344;27;20170;-71
2022/02/13 07:15:21;;;;;;;5.32;3.35;;;;;;;;;;5178839;27;20093;-75
2022/02/13 07:17:47;;;;;;;3.47;2.47;;;;;;;;;;5179285;27;20407;-71
2022/02/13 07:20:14;;;;;;;3.25;2.33;;;;;;;;;;5179282;27;20429;-71
2022/02/13 07:22:40;;;;;;;3.70;2.50;;;;;;;;;;5179195;27;20074;-73
2022/02/13 07:25:07;;;;;;;4.18;2.80;;;;;;;;;;5179455;27;20531;-67
2022/02/13 07:27:36;;;;;;;4.72;3.08;;;;;;;;;;5179402;27;20624;-67
2022/02/13 07:30:07;;;;;;;4.12;2.92;;;;;;;;;;5179470;27;20427;-68
2022/02/13 07:32:33;;;;;;;5.35;2.97;;;;;;;;;;5179469;27;20077;-68
2022/02/13 07:34:59;;;;;;;4.28;3.00;;;;;;;;;;5179702;27;20160;-67
2022/02/13 07:37:25;;;;;;;5.05;2.70;;;;;;;;;;5179800;27;20449;-68
2022/02/13 07:39:51;;;;;;;4.25;2.53;;;;;;;;;;5179642;27;20097;-68
2022/02/13 07:42:18;;;;;;;4.20;2.60;;;;;;;;;;5179349;27;20543;-70
2022/02/13 07:44:46;;;;;;;3.20;2.47;;;;;;;;;;5179771;27;20516;-70
2022/02/13 07:47:13;;;;;;;4.05;2.50;;;;;;;;;;5160929;27;20090;-69
2022/02/13 07:49:40;;;;;;;4.03;2.42;;;;;;;;;;5179410;27;20085;-68
2022/02/13 07:52:07;;;;;;;13.62;3.33;;;;;;;;;;5179353;27;20161;-67
2022/02/13 07:54:33;;;;;;;4.25;2.40;;;;;;;;;;5179318;27;20074;-75
2022/02/13 07:56:59;;;;;;;3.40;2.20;;;;;;;;;;5178877;27;20184;-74
2022/02/13 07:59:25;;;;;;;2.80;2.20;;;;;;;;;;5179383;27;20592;-76
2022/02/13 08:01:51;;;;;;;3.40;2.15;;;;;;;;;;5179988;27;20489;-76
2022/02/13 08:04:17;;;;;;;3.83;2.20;;;;;;;;;;5160610;27;20078;-74
2022/02/13 08:06:44;;;;;;;4.40;1.90;;;;;;;;;;5176324;27;20106;-74
2022/02/13 08:09:10;;;;;;;3.50;2.40;;;;;;;;;;5159235;27;20097;-75
2022/02/13 08:11:36;;;;;;;4.70;2.35;;;;;;;;;;5177942;27;20565;-75
2022/02/13 08:14:02;;;;;;;2.83;2.22;;;;;;;;;;5159710;27;20128;-75
2022/02/13 08:16:28;;;;;;;3.22;2.28;;;;;;;;;;5160690;27;20078;-76
2022/02/13 08:18:54;;;;;;;3.40;1.90;;;;;;;;;;5179541;27;20085;-76
2022/02/13 08:21:20;;;;;;;4.82;2.10;;;;;;;;;;5179279;27;20168;-78
2022/02/13 08:23:47;;;;;;;2.87;2.10;;;;;;;;;;5179026;27;20184;-77
2022/02/13 08:26:15;;;;;;;3.35;2.20;;;;;;;;;;5179146;27;20482;-78
2022/02/13 08:28:41;;;;;;;3.83;2.20;;;;;;;;;;5178573;27;20089;-74
2022/02/13 08:31:07;;;;;;;3.75;2.70;;;;;;;;;;5178980;27;20420;-72
2022/02/13 08:33:33;;;;;;;3.10;2.15;;;;;;;;;;5178202;27;20557;-75
2022/02/13 08:35:59;;;;;;;3.58;2.17;;;;;;;;;;5178855;27;20568;-74
2022/02/13 08:38:26;;;;;;;2.62;2.10;;;;;;;;;;5179035;27;20090;-74
2022/02/13 08:40:52;;;;;;;2.90;2.12;;;;;;;;;;5179175;27;20101;-73
2022/02/13 08:43:19;;;;;;;6.82;4.37;;;;;;;;;;5178666;27;20153;-72
2022/02/13 08:45:46;;;;;;;3.12;2.05;;;;;;;;;;5178596;27;20538;-71
2022/02/13 08:48:13;;;;;;;4.93;2.47;;;;;;;;;;5178894;27;20094;-73
2022/02/13 08:50:40;;;;;;;3.60;2.15;;;;;;;;;;5179397;27;20153;-73
2022/02/13 08:53:07;;;;;;;1.85;1.60;;;;;;;;;;5159842;27;20086;-70
2022/02/13 08:55:33;;;;;;;3.60;2.05;;;;;;;;;;5180469;27;20070;-74
2022/02/13 08:57:59;;;;;;;3.70;2.30;;;;;;;;;;5180762;27;20125;-73
2022/02/13 09:00:25;;;;;;;4.05;2.10;;;;;;;;;;5180519;27;20085;-74
2022/02/13 09:02:51;;;;;;;3.65;2.55;;;;;;;;;;5180493;27;20591;-73
2022/02/13 09:05:18;;;;;;;2.28;2.00;;;;;;;;;;5181049;27;20093;-67
2022/02/13 09:07:44;;;;;;;3.75;1.80;;;;;;;;;;5161543;27;20090;-65
2022/02/13 09:10:12;;;;;;;1.73;1.52;;;;;;;;;;5180215;27;20085;-67
2022/02/13 09:12:38;;;;;;;3.22;1.62;;;;;;;;;;5180500;27;20167;-65
2022/02/13 09:15:05;;;;;;;2.25;1.80;;;;;;;;;;5161591;27;20082;-65
2022/02/13 09:17:31;;;;;;;3.83;2.10;;;;;;;;;;5180698;27;20078;-66
2022/02/13 09:19:57;;;;;;;2.85;2.00;;;;;;;;;;5180508;27;20093;-68
2022/02/13 09:22:24;;;;;;;2.42;1.95;;;;;;;;;;5180421;27;20081;-65
2022/02/13 09:24:50;;;;;;;2.65;1.73;;;;;;;;;;5180516;27;20170;-64
2022/02/13 09:27:16;;;;;;;3.37;2.55;;;;;;;;;;5180485;27;20161;-64
2022/02/13 09:29:42;;;;;;;3.22;2.45;;;;;;;;;;5161389;27;20093;-64
2022/02/13 09:32:09;;;;;;;3.42;2.30;;;;;;;;;;5180466;27;20184;-63
2022/02/13 09:34:35;;;;;;;5.50;2.87;;;;;;;;;;5180335;27;20571;-67
2022/02/13 09:37:01;;;;;;;2.12;1.92;;;;;;;;;;5180395;27;20427;-63
2022/02/13 09:39:28;;;;;;;3.10;1.90;;;;;;;;;;5180430;27;20085;-63
2022/02/13 09:41:54;;;;;;;2.10;1.90;;;;;;;;;;5180438;27;20086;-64
2022/02/13 09:44:21;;;;;;;3.70;2.17;;;;;;;;;;5180418;27;20153;-64
2022/02/13 09:46:48;;;;;;;3.60;2.53;;;;;;;;;;5180443;27;20164;-63
2022/02/13 09:49:22;;;;;;;2.78;2.12;;;;;;;;;;5180413;27;20511;-63
2022/02/13 09:51:48;;;;;;;2.85;1.98;;;;;;;;;;5180356;27;20090;-64
2022/02/13 09:54:14;;;;;;;2.25;1.80;;;;;;;;;;5180110;27;20124;-64
2022/02/13 09:56:41;;;;;;;3.15;2.37;;;;;;;;;;5180327;27;20080;-63
2022/02/13 09:59:08;;;;;;;2.87;2.05;;;;;;;;;;5180208;27;20066;-64
2022/02/13 10:01:47;;;;;;;2.67;2.10;;;;;;;;;;5180334;27;20082;-64
2022/02/13 10:04:14;;;;;;;1.90;1.75;;;;;;;;;;5180259;27;20395;-67
2022/02/13 10:06:40;;;;;;;3.60;2.10;;;;;;;;;;5179998;27;20157;-64
2022/02/13 10:09:08;;;;;;;2.15;1.83;;;;;;;;;;5178952;27;20534;-65
2022/02/13 10:11:37;;;;;;;3.22;1.90;;;;;;;;;;5178286;27;20081;-66
2022/02/13 10:14:15;;;;;;;3.50;2.28;;;;;;;;;;5177867;27;20092;-66
2022/02/13 10:16:49;;;;;;;4.53;2.28;;;;;;;;;;5178743;27;20155;-66
2022/02/13 10:19:16;;;;;;;5.05;2.67;;;;;;;;;;5179889;27;20070;-65
2022/02/13 10:21:44;;;;;;;3.47;2.35;;;;;;;;;;5180128;27;20080;-66
2022/02/13 10:24:23;;;;;;;3.97;3.05;;;;;;;;;;5179892;27;20146;-69
2022/02/13 10:27:17;;;;;;;5.40;4.32;;;;;;;;;;5179617;27;20176;-72
2022/02/13 10:29:45;;;;;;;4.37;3.17;;;;;;;;;;5180173;27;20104;-65
2022/02/13 10:32:21;;;;;;;3.47;2.60;;;;;;;;;;5180003;27;20089;-66
2022/02/13 10:34:58;;;;;;;3.92;2.70;;;;;;;;;;5179912;27;20085;-69
2022/02/13 10:37:44;;;;;;;3.40;2.90;;;;;;;;;;5180253;27;20379;-68
2022/02/13 10:40:15;;;;;;;4.53;2.55;;;;;;;;;;5180035;27;20445;-65
2022/02/13 10:42:42;;;;;;;3.87;2.30;;;;;;;;;;5179676;27;20082;-71
2022/02/13 10:45:28;;;;;;;5.50;2.40;;;;;;;;;;5180351;27;20074;-61
2022/02/13 10:47:59;;;;;;;4.15;2.97;;;;;;;;;;5180565;27;20442;-63
2022/02/13 10:50:27;;;;;;;3.62;2.37;;;;;;;;;;5161215;27;20074;-61
2022/02/13 10:52:58;;;;;;;4.43;2.40;;;;;;;;;;5180555;27;20162;-61
2022/02/13 10:55:26;;;;;;;6.15;4.03;;;;;;;;;;5161621;27;20074;-67
2022/02/13 10:57:52;;;;;;;6.20;3.62;;;;;;;;;;5179774;27;20070;-68
2022/02/13 11:00:19;;;;;;;4.95;2.60;;;;;;;;;;5179920;27;20138;-68
2022/02/13 11:02:46;;;;;;;4.55;2.97;;;;;;;;;;5179872;27;20219;-68
2022/02/13 11:05:12;;;;;;;3.53;2.78;;;;;;;;;;5161097;27;20175;-67
2022/02/13 11:07:48;;;;;;;4.93;2.65;;;;;;;;;;5161204;27;20078;-67
2022/02/13 11:10:30;;;;;;;3.70;2.72;;;;;;;;;;5179900;27;20067;-67
2022/02/13 11:12:56;;;;;;;4.40;2.35;;;;;;;;;;5160538;27;20164;-68
2022/02/13 11:15:28;;;;;;;3.85;2.42;;;;;;;;;;5160851;27;20104;-68
2022/02/13 11:17:58;;;;;;;4.30;2.85;;;;;;;;;;5179735;27;20457;-68
2022/02/13 11:20:24;;;;;;;5.55;2.65;;;;;;;;;;5142831;27;20101;-66
2022/02/13 11:22:53;;;;;;;3.97;2.80;;;;;;;;;;5179445;27;20517;-67
2022/02/13 11:25:49;;;;;;;4.37;2.80;;;;;;;;;;5179568;27;20076;-69
2022/02/13 11:28:16;;;;;;;3.87;2.78;;;;;;;;;;5179670;27;20109;-68
2022/02/13 11:30:52;;;;;;;3.00;2.30;;;;;;;;;;5179659;27;20669;-68
2022/02/13 11:33:23;;;;;;;;;;;;;;;;;;5179984;27;20088;-68
2022/02/13 11:36:01;;;;;;;7.07;2.65;;;;;;;;;;5179680;27;20440;-67
2022/02/13 11:38:48;;;;;;;3.72;2.62;;;;;;;;;;5160982;27;20484;-64
2022/02/13 11:41:16;;;;;;;4.87;3.15;;;;;;;;;;5179612;27;20097;-64
2022/02/13 11:43:45;;;;;;;4.87;3.28;;;;;;;;;;5179691;27;20086;-63
2022/02/13 11:46:11;;;;;;;4.15;3.65;;;;;;;;;;5179815;27;20062;-64
2022/02/13 11:48:44;;;;;;;4.47;3.20;;;;;;;;;;5179584;27;20082;-64
2022/02/13 11:51:13;;;;;;;3.97;2.90;;;;;;;;;;5179630;27;20092;-64
2022/02/13 11:53:44;;;;;;;5.90;2.90;;;;;;;;;;5179396;27;20059;-64
2022/02/13 11:56:30;;;;;;;3.92;3.53;;;;;;;;;;5177934;27;20097;-62
2022/02/13 11:58:57;;;;;;;4.03;3.10;;;;;;;;;;5178222;27;20519;-70
2022/02/13 12:01:35;;;;;;;5.35;3.60;;;;;;;;;;5178351;27;20088;-67
2022/02/13 12:04:08;;;;;;;5.18;3.40;;;;;;;;;;5179013;27;20093;-63
2022/02/13 12:06:34;;;;;;;5.35;3.17;;;;;;;;;;5178737;27;20065;-63
2022/02/13 12:09:07;;;;;;;3.72;3.00;;;;;;;;;;5179477;27;20137;-60
2022/02/13 12:11:36;;;;;;;4.18;3.10;;;;;;;;;;5179303;27;20090;-62
2022/02/13 12:14:20;;;;;;;3.40;2.92;;;;;;;;;;5179526;27;20410;-61
2022/02/13 12:16:49;;;;;;;3.30;2.92;;;;;;;;;;5179345;27;20177;-62
2022/02/13 12:19:28;;;;;;;3.60;2.47;;;;;;;;;;5179222;27;20077;-61
2022/02/13 12:22:11;;;;;;;3.85;2.72;;;;;;;;;;5179657;27;20086;-63
2022/02/13 12:24:38;;;;;;;4.37;2.80;;;;;;;;;;5179299;27;20159;-62
2022/02/13 12:27:04;;;;;;;3.50;2.62;;;;;;;;;;5179429;27;20070;-63
2022/02/13 12:29:31;;;;;;;5.45;2.75;;;;;;;;;;5179141;27;20086;-61
2022/02/13 12:32:11;;;;;;;3.40;2.60;;;;;;;;;;5179065;27;20089;-62
2022/02/13 12:34:54;;;;;;;4.20;3.17;;;;;;;;;;5178990;27;20528;-60
2022/02/13 12:37:21;;;;;;;4.85;3.20;;;;;;;;;;5179493;27;20073;-61
2022/02/13 12:39:51;;;;;;;3.08;2.72;;;;;;;;;;5179013;27;20513;-61
2022/02/13 12:42:39;;;;;;;4.80;3.00;;;;;;;;;;5179283;27;20077;-62
2022/02/13 12:45:10;;;;;;;6.15;2.85;;;;;;;;;;5179133;27;20667;-62
2022/02/13 12:47:43;;;;;;;3.15;2.53;;;;;;;;;;5179259;27;20101;-62
2022/02/13 12:50:12;;;;;;;4.07;2.62;;;;;;;;;;5178840;27;20172;-60
2022/02/13 12:52:39;;;;;;;3.55;2.70;;;;;;;;;;5179077;27;20086;-63
2022/02/13 12:55:09;;;;;;;2.78;2.58;;;;;;;;;;5179162;27;20215;-63
2022/02/13 12:57:36;;;;;;;3.37;2.47;;;;;;;;;;5179232;27;20062;-60
2022/02/13 13:00:04;;;;;;;3.25;2.58;;;;;;;;;;5178929;27;20200;-62
2022/02/13 13:02:30;;;;;;;4.55;2.90;;;;;;;;;;5179503;27;20437;-63
2022/02/13 13:05:17;;;;;;;4.37;2.87;;;;;;;;;;5160183;27;20090;-62
2022/02/13 13:07:46;;;;;;;5.03;3.08;;;;;;;;;;5179273;27;20580;-63
2022/02/13 13:10:23;;;;;;;3.25;2.70;;;;;;;;;;5179288;27;20063;-62
2022/02/13 13:13:03;;;;;;;3.12;2.72;;;;;;;;;;5179249;27;20422;-60
2022/02/13 13:15:29;;;;;;;5.95;3.00;;;;;;;;;;5179217;27;20074;-62
2022/02/13 13:17:55;;;;;;;4.47;3.33;;;;;;;;;;5179159;27;20188;-62
2022/02/13 13:20:23;;;;;;;7.10;3.60;;;;;;;;;;5179149;27;20066;-61
2022/02/13 13:23:11;;;;;;;4.95;3.42;;;;;;;;;;5179231;27;20082;-64
2022/02/13 13:25:38;;;;;;;3.25;2.78;;;;;;;;;;5179096;27;20085;-63
2022/02/13 13:28:08;;;;;;;5.15;3.40;;;;;;;;;;5179209;27;20082;-64
2022/02/13 13:30:34;;;;;;;4.18;3.03;;;;;;;;;;5160391;27;20074;-64
2022/02/13 13:33:04;;;;;;;4.97;3.05;;;;;;;;;;5179227;27;20174;-63
2022/02/13 13:35:31;;;;;;;4.45;3.08;;;;;;;;;;5178994;27;20058;-64
2022/02/13 13:37:58;;;;;;;4.10;2.90;;;;;;;;;;5179206;27;20512;-64
2022/02/13 13:40:25;;;;;;;4.72;3.50;;;;;;;;;;5179297;27;20097;-64
2022/02/13 13:42:56;;;;;;;3.78;2.62;;;;;;;;;;5180354;27;20092;-66
2022/02/13 13:45:27;;;;;;;4.18;2.47;;;;;;;;;;5180615;27;20163;-65
2022/02/13 13:47:54;;;;;;;4.00;2.40;;;;;;;;;;5180562;27;20101;-65
2022/02/13 13:50:32;;;;;;;3.15;2.42;;;;;;;;;;5180387;27;20093;-65
2022/02/13 13:52:58;;;;;;;2.45;2.08;;;;;;;;;;5180297;27;20085;-64
2022/02/13 13:55:24;;;;;;;4.22;2.50;;;;;;;;;;5180069;27;20090;-69
2022/02/13 13:57:50;;;;;;;4.25;2.50;;;;;;;;;;5180220;27;20089;-66
2022/02/13 14:00:17;;;;;;;4.60;2.60;;;;;;;;;;5179790;27;20090;-68
2022/02/13 14:02:58;;;;;;;3.03;2.37;;;;;;;;;;5179998;27;20078;-65
2022/02/13 14:05:25;;;;;;;3.62;2.40;;;;;;;;;;5179960;27;20066;-66
2022/02/13 14:07:51;;;;;;;3.28;2.80;;;;;;;;;;5179928;27;20170;-67
2022/02/13 14:10:19;;;;;;;2.65;2.12;;;;;;;;;;5179956;27;20100;-68
2022/02/13 14:12:45;;;;;;;3.33;2.60;;;;;;;;;;5180056;27;20085;-66
2022/02/13 14:15:11;;;;;;;3.75;2.50;;;;;;;;;;5180278;27;20081;-67
2022/02/13 14:17:38;;;;;;;4.15;2.50;;;;;;;;;;5180130;27;20074;-67
2022/02/13 14:20:04;;;;;;;3.45;2.60;;;;;;;;;;5161091;27;20509;-68
2022/02/13 14:22:30;;;;;;;3.22;2.40;;;;;;;;;;5179752;27;20187;-67
2022/02/13 14:24:56;;;;;;;4.90;3.28;;;;;;;;;;5160787;27;20183;-66
2022/02/13 14:27:22;;;;;;;3.42;2.70;;;;;;;;;;5179686;27;20085;-67
2022/02/13 14:29:49;;;;;;;3.47;2.70;;;;;;;;;;5179569;27;20170;-68
2022/02/13 14:32:15;;;;;;;5.15;2.80;;;;;;;;;;5179816;27;20162;-64
2022/02/13 14:34:41;;;;;;;3.35;2.28;;;;;;;;;;5179832;27;20074;-67
2022/02/13 14:37:07;;;;;;;3.72;2.28;;;;;;;;;;5159857;27;20195;-66
2022/02/13 14:39:34;;;;;;;3.35;2.55;;;;;;;;;;5179718;27;20097;-66
2022/02/13 14:42:00;;;;;;;4.60;2.75;;;;;;;;;;5179639;27;20164;-66
2022/02/13 14:44:26;;;;;;;4.43;3.00;;;;;;;;;;5179538;27;20433;-66
2022/02/13 14:46:52;;;;;;;5.55;2.55;;;;;;;;;;5179721;27;20497;-66
2022/02/13 14:49:18;;;;;;;3.50;2.30;;;;;;;;;;5179645;27;20093;-65
2022/02/13 14:51:44;;;;;;;4.20;3.10;;;;;;;;;;5179711;27;20097;-66
2022/02/13 14:54:10;;;;;;;4.18;2.83;;;;;;;;;;5179768;27;20489;-67
2022/02/13 14:56:36;;;;;;;6.18;3.53;;;;;;;;;;5179660;27;20195;-66
2022/02/13 14:59:02;;;;;;;4.90;3.15;;;;;;;;;;5179671;27;20168;-67
2022/02/13 15:01:28;;;;;;;5.03;2.87;;;;;;;;;;5179563;27;20085;-67
2022/02/13 15:03:55;;;;;;;3.92;2.83;;;;;;;;;;5179532;27;20086;-67
2022/02/13 15:06:21;;;;;;;5.07;3.00;;;;;;;;;;5179356;27;20097;-66